• Join FlightAware (Why Join?)
  • Login
  • US Flag 
11:32PM EDT


 

Airport Tracker/Info


-or-


 

Live Flight TrackerFlight Track Log ✈ JA-738J ✈ 22-Apr-2013 ✈ RJAA / NRT - KLAX

Flight Track Log - Related Links

Times and Time Zones

All times are in EDT time to prevent confusion due to time zone crossing. See the JA-738J flight status page for this flight to view local times or setup timezone preferences in your user account.

Time Position Orientation Groundspeed Altitude Reporting Facility
EDT Latitude Longitude Course Direction KTS MPH feet Rate Location/Type
04:43AM 35.7180 140.4090 150° Southeast 197 227 2,000  Level FlightAware
04:43AM 35.6980 140.4230 150° Southeast 212 244 2,600 1,740 Climbing FlightAware
04:44AM 35.6710 140.4430 149° Southeast 224 258 3,600 1,500 Climbing FlightAware
04:44AM 35.6460 140.4610 150° Southeast 261 300 4,000 1,440 Climbing FlightAware
04:44AM 35.6200 140.4800 149° Southeast 276 318 4,800 2,160 Climbing FlightAware
04:45AM 35.5800 140.5090 149° Southeast 283 326 6,200 1,860 Climbing FlightAware
04:45AM 35.5540 140.5340 142° Southeast 301 346 6,700 900 Climbing FlightAware
04:46AM 35.5450 140.5560 117° Southeast 288 331 6,800 180 Climbing FlightAware
04:46AM 35.5410 140.5820 101° East 286 329 6,800 120 Level FlightAware
04:46AM 35.5370 140.6260 96° East 285 328 6,900 420 Climbing FlightAware
04:47AM 35.5340 140.6710 95° East 290 334 7,200 900 Climbing FlightAware
04:47AM 35.5310 140.6960 98° East 292 336 7,500 900 Climbing FlightAware
04:47AM 35.5280 140.7310 96° East 295 339 7,800 1,080 Climbing FlightAware
04:48AM 35.5240 140.7710 97° East 299 344 8,400 1,860 Climbing FlightAware
04:48AM 35.5180 140.8330 97° East 309 356 9,700 1,560 Climbing FlightAware
04:49AM 35.5110 140.9090 96° East 351 404 10,400 1,260 Climbing FlightAware
04:50AM 35.5020 141.0020 97° East 379 436 11,500 1,500 Climbing FlightAware
04:51AM 35.5030 141.0930 89° East 398 458 12,600 1,920 Climbing FlightAware
04:51AM 35.5420 141.2010 66° East 14,400 2,040 Climbing FlightAware
04:52AM 35.5840 141.3080 64° Northeast 427 491 16,000 2,100 Climbing FlightAware
04:53AM 35.6180 141.3930 64° Northeast 434 499 17,400 1,980 Climbing FlightAware
04:53AM 35.6460 141.4630 64° Northeast 440 506 18,500 2,040 Climbing FlightAware
04:55AM 35.7070 141.6180 64° Northeast 452 520 20,800 1,980 Climbing FlightAware
04:55AM 35.7430 141.7110 64° Northeast 459 528 22,000 1,800 Climbing FlightAware
04:56AM 35.7810 141.8090 64° Northeast 468 539 23,200 1,620 Climbing FlightAware
04:57AM 35.8230 141.9170 64° Northeast 475 547 24,300 1,320 Climbing FlightAware
04:57AM 35.8620 142.0160 64° Northeast 494 568 25,100 1,260 Climbing FlightAware
04:58AM 35.8950 142.1010 64° Northeast 498 573 25,900 1,440 Climbing FlightAware
04:59AM 35.9620 142.2760 65° Northeast 505 581 27,500 1,320 Climbing FlightAware
05:00AM 36.0090 142.3970 64° Northeast 517 595 28,400 720 Climbing FlightAware
05:00AM 36.0320 142.4600 66° East 517 595 28,500 1,260 Climbing FlightAware
05:01AM 36.0860 142.5990 64° Northeast 529 609 30,000 900 Climbing FlightAware
05:02AM 36.1460 142.7580 65° Northeast 529 609 30,000  Level FlightAware
05:03AM 36.1880 142.8700 65° Northeast 529 609 30,000  Level FlightAware
05:03AM 36.2240 142.9640 65° Northeast 529 609 30,000  Level FlightAware
05:04AM 36.2590 143.0570 65° Northeast 529 609 30,000  Level FlightAware
05:05AM 36.2940 143.1510 65° Northeast 529 609 30,000  Level FlightAware
05:06AM 36.3380 143.2680 65° Northeast 529 609 30,000  Level FlightAware
07:00AM 45.1333 163.3667 66° East 535 616 32,000  Climbing Oakland Oceanic (ODAPS)
07:02AM 45.2667 163.7833 66° East 535 616 32,000  Level Oakland Oceanic (ODAPS)
07:08AM 45.6000 164.8500 67° East 533 613 32,300  Climbing Oakland Oceanic (ODAPS)
07:34AM 47.0000 170.0000 70° East 526 605 33,000  Climbing Oakland Oceanic (ODAPS)
07:34AM 47.0333 170.1000 70° East 528 608 33,000  Level Oakland Oceanic (ODAPS)
08:01AM 48.2167 175.4833 74° East 516 594 33,000  Level Oakland Oceanic (ODAPS)
08:24AM 49.0000 180.0000 77° East 479 551 35,000 60 Climbing Oakland Oceanic (ODAPS)
08:28AM 49.1000 -179.2667 78° East 475 547 35,000  Level Oakland Oceanic (ODAPS)
08:54AM 49.7000 -174.0000 82° East 472 543 35,000  Level Oakland Oceanic (ODAPS)
09:15AM 50.0000 -170.0000 77° East 468 539 35,000  Level Oakland Oceanic (ODAPS)
09:21AM 50.1667 -168.8000 78° East 477 549 35,000  Level Oakland Oceanic (ODAPS)
09:48AM 50.7500 -163.4500 82° East 481 554 35,000  Level Oakland Oceanic (ODAPS)
10:05AM 51.0000 -160.0000 86° East 492 566 35,000  Level Oakland Oceanic (ODAPS)
10:15AM 51.0667 -157.9000 88° East 494 568 35,000  Level Oakland Oceanic (ODAPS)
10:21AM 51.0926 -156.5832 89° East 494 568 35,000  Level FlightAware Transoceanic
10:22AM 51.0955 -156.3636 89° East 494 568 35,000  Level FlightAware Transoceanic
10:23AM 51.0979 -156.1439 89° East 494 568 35,000  Level FlightAware Transoceanic
10:24AM 51.1000 -155.9243 89° East 494 568 35,000  Level FlightAware Transoceanic
10:25AM 51.1016 -155.7046 89° East 494 568 35,000  Level FlightAware Transoceanic
10:26AM 51.1028 -155.4850 90° East 494 568 35,000  Level FlightAware Transoceanic
10:27AM 51.1037 -155.2653 90° East 494 568 35,000  Level FlightAware Transoceanic
10:28AM 51.1041 -155.0456 90° East 494 568 35,000  Level FlightAware Transoceanic
10:29AM 51.1041 -154.8259 90° East 494 568 35,000  Level FlightAware Transoceanic
10:30AM 51.1037 -154.6062 90° East 494 568 35,000  Level FlightAware Transoceanic
10:31AM 51.1028 -154.3865 90° East 494 568 35,000  Level FlightAware Transoceanic
10:32AM 51.1016 -154.1668 91° East 494 568 35,000  Level FlightAware Transoceanic
10:33AM 51.0999 -153.9471 91° East 494 568 35,000  Level FlightAware Transoceanic
10:34AM 51.0979 -153.7275 91° East 494 568 35,000  Level FlightAware Transoceanic
10:35AM 51.0954 -153.5079 91° East 494 568 35,000  Level FlightAware Transoceanic
10:36AM 51.0925 -153.2883 91° East 494 568 35,000  Level FlightAware Transoceanic
10:37AM 51.0892 -153.0687 91° East 494 568 35,000  Level FlightAware Transoceanic
10:38AM 51.0855 -152.8492 92° East 494 568 35,000  Level FlightAware Transoceanic
10:39AM 51.0814 -152.6297 92° East 494 568 35,000  Level FlightAware Transoceanic
10:40AM 51.0769 -152.4102 92° East 494 568 35,000  Level FlightAware Transoceanic
10:41AM 51.0719 -152.1908 92° East 494 568 35,000  Level FlightAware Transoceanic
10:41AM 51.0667 -152.1667 92° East 512 589 35,000  Level Oakland Oceanic (ODAPS)
10:42AM 51.0666 -151.9715 92° East 494 568 35,000  Level FlightAware Transoceanic
10:43AM 51.0608 -151.7521 92° East 494 568 35,000  Level FlightAware Transoceanic
10:44AM 51.0547 -151.5329 93° East 494 568 35,000  Level FlightAware Transoceanic
10:45AM 51.0481 -151.3137 93° East 494 568 35,000  Level FlightAware Transoceanic
10:46AM 51.0411 -151.0946 93° East 494 568 35,000  Level FlightAware Transoceanic
10:47AM 51.0337 -150.8755 93° East 494 568 35,000  Level FlightAware Transoceanic
10:48AM 51.0267 -150.7215 93° East 512 589 35,000  Level FlightAware Transoceanic
10:49AM 51.0183 -150.4809 93° East 512 589 35,000  Level FlightAware Transoceanic
10:50AM 51.0094 -150.2404 93° East 512 589 35,000  Level FlightAware Transoceanic
10:51AM 51.0000 -150.0000 103° East 512 589 35,000  Level FlightAware Transoceanic
10:51AM 51.0000 -150.0000 103° East 498 573 35,000  Level Oakland Oceanic (ODAPS)
10:52AM 50.9666 -149.7790 104° East 512 589 35,000  Level FlightAware Transoceanic
10:53AM 50.9328 -149.5583 104° East 512 589 35,000  Level FlightAware Transoceanic
10:54AM 50.8986 -149.3379 104° East 512 589 35,000  Level FlightAware Transoceanic
10:55AM 50.8640 -149.1178 104° East 512 589 35,000  Level FlightAware Transoceanic
10:56AM 50.8289 -148.8981 104° East 512 589 35,000  Level FlightAware Transoceanic
10:57AM 50.7934 -148.6787 104° East 512 589 35,000  Level FlightAware Transoceanic
10:58AM 50.7979 -148.7061 104° East 498 573 35,000  Level FlightAware Transoceanic
10:59AM 50.7628 -148.4915 105° East 498 573 35,000  Level FlightAware Transoceanic
11:00AM 50.7274 -148.2773 105° East 498 573 35,000  Level FlightAware Transoceanic
11:01AM 50.6915 -148.0634 105° East 498 573 35,000  Level FlightAware Transoceanic
11:02AM 50.6553 -147.8498 105° East 498 573 35,000  Level FlightAware Transoceanic
11:03AM 50.6186 -147.6366 105° East 498 573 35,000  Level FlightAware Transoceanic
11:04AM 50.5816 -147.4237 105° East 498 573 35,000  Level FlightAware Transoceanic
11:05AM 50.5442 -147.2111 106° East 498 573 35,000  Level FlightAware Transoceanic
11:06AM 50.5064 -146.9989 106° East 498 573 35,000  Level FlightAware Transoceanic
11:07AM 50.4683 -146.7870 106° East 498 573 35,000  Level FlightAware Transoceanic
11:08AM 50.4297 -146.5755 106° East 498 573 35,000 720 Level FlightAware Transoceanic
11:08AM 50.4167 -146.5000 106° East 506 582 36,000  Climbing Oakland Oceanic (ODAPS)
11:09AM 50.3907 -146.3642 106° East 498 573 35,000 -660 Descending FlightAware Transoceanic
11:10AM 50.3514 -146.1534 106° East 498 573 35,000  Level FlightAware Transoceanic
11:11AM 50.3117 -145.9429 107° East 498 573 35,000  Level FlightAware Transoceanic
11:12AM 50.2716 -145.7327 107° East 498 573 35,000  Level FlightAware Transoceanic
11:13AM 50.2311 -145.5229 107° East 498 573 35,000 480 Level FlightAware Transoceanic
11:14AM 50.1791 -145.2528 107° East 506 582 36,000 480 Climbing FlightAware Transoceanic
11:15AM 50.1382 -145.0462 107° East 506 582 36,000  Level FlightAware Transoceanic
11:16AM 50.0969 -144.8399 107° East 506 582 36,000  Level FlightAware Transoceanic
11:17AM 50.0553 -144.6339 108° East 506 582 36,000  Level FlightAware Transoceanic
11:18AM 50.0133 -144.4284 108° East 506 582 36,000  Level FlightAware Transoceanic
11:19AM 49.9710 -144.2231 108° East 506 582 36,000  Level FlightAware Transoceanic
11:20AM 49.9282 -144.0183 108° East 506 582 36,000  Level FlightAware Transoceanic
11:21AM 49.8852 -143.8138 108° East 506 582 36,000  Level FlightAware Transoceanic
11:22AM 49.8417 -143.6097 108° East 506 582 36,000  Level FlightAware Transoceanic
11:23AM 49.7980 -143.4059 109° East 506 582 36,000  Level FlightAware Transoceanic
11:24AM 49.7538 -143.2026 109° East 506 582 36,000  Level FlightAware Transoceanic
11:25AM 49.7093 -142.9995 109° East 506 582 36,000  Level FlightAware Transoceanic
11:26AM 49.6645 -142.7969 109° East 506 582 36,000  Level FlightAware Transoceanic
11:27AM 49.6193 -142.5946 109° East 506 582 36,000  Level FlightAware Transoceanic
11:28AM 49.5737 -142.3927 109° East 506 582 36,000  Level FlightAware Transoceanic
11:29AM 49.5278 -142.1912 109° East 506 582 36,000  Level FlightAware Transoceanic
11:30AM 49.4815 -141.9901 110° East 506 582 36,000  Level FlightAware Transoceanic
11:31AM 49.4349 -141.7894 110° East 506 582 36,000  Level FlightAware Transoceanic
11:32AM 49.3880 -141.5890 110° East 506 582 36,000  Level FlightAware Transoceanic
11:33AM 49.3407 -141.3890 110° East 506 582 36,000  Level FlightAware Transoceanic
11:34AM 49.2930 -141.1894 110° East 506 582 36,000  Level FlightAware Transoceanic
11:35AM 49.2450 -140.9902 110° East 506 582 36,000  Level FlightAware Transoceanic
11:35AM 49.2500 -141.0167 110° East 517 595 36,000  Level Oakland Oceanic (ODAPS)
11:36AM 49.1967 -140.7914 110° East 506 582 36,000  Level FlightAware Transoceanic
11:37AM 49.1480 -140.5930 111° Southeast 506 582 36,000  Level FlightAware Transoceanic
11:38AM 49.0990 -140.3949 111° Southeast 506 582 36,000  Level FlightAware Transoceanic
11:39AM 49.0497 -140.1973 111° Southeast 506 582 36,000  Level FlightAware Transoceanic
11:40AM 49.0000 -140.0000 122° Southeast 506 582 36,000  Level FlightAware Transoceanic
11:40AM 49.0000 -140.0000 122° Southeast 512 589 36,000  Level Oakland Oceanic (ODAPS)
11:41AM 48.9202 -139.8082 122° Southeast 517 595 36,000  Level FlightAware Transoceanic
11:42AM 48.8401 -139.6171 123° Southeast 517 595 36,000  Level FlightAware Transoceanic
11:43AM 48.7598 -139.4265 123° Southeast 517 595 36,000  Level FlightAware Transoceanic
11:44AM 48.6790 -139.2365 123° Southeast 517 595 36,000  Level FlightAware Transoceanic
11:45AM 48.5980 -139.0472 123° Southeast 517 595 36,000  Level FlightAware Transoceanic
11:46AM 48.5411 -138.9150 123° Southeast 512 589 36,000  Level FlightAware Transoceanic
11:47AM 48.4636 -138.7361 123° Southeast 512 589 36,000  Level FlightAware Transoceanic
11:48AM 48.3859 -138.5578 123° Southeast 512 589 36,000  Level FlightAware Transoceanic
11:49AM 48.3079 -138.3799 123° Southeast 512 589 36,000  Level FlightAware Transoceanic
11:50AM 48.2296 -138.2027 124° Southeast 512 589 36,000  Level FlightAware Transoceanic
11:51AM 48.1510 -138.0260 124° Southeast 512 589 36,000  Level FlightAware Transoceanic
11:52AM 48.0722 -137.8498 124° Southeast 512 589 36,000  Level FlightAware Transoceanic
11:53AM 47.9931 -137.6741 124° Southeast 512 589 36,000  Level FlightAware Transoceanic
11:54AM 47.9137 -137.4990 124° Southeast 512 589 36,000  Level FlightAware Transoceanic
11:55AM 47.8341 -137.3244 124° Southeast 512 589 36,000  Level FlightAware Transoceanic
11:56AM 47.7542 -137.1504 124° Southeast 512 589 36,000  Level FlightAware Transoceanic
11:57AM 47.6741 -136.9769 125° Southeast 512 589 36,000  Level FlightAware Transoceanic
11:58AM 47.5936 -136.8039 125° Southeast 512 589 36,000  Level FlightAware Transoceanic
11:59AM 47.5130 -136.6315 125° Southeast 512 589 36,000  Level FlightAware Transoceanic
12:00PM 47.4320 -136.4596 125° Southeast 512 589 36,000  Level FlightAware Transoceanic
12:01PM 47.3508 -136.2882 125° Southeast 512 589 36,000  Level FlightAware Transoceanic
12:01PM 47.2833 -136.1500 125° Southeast 511 588 36,000  Level Oakland Oceanic (ODAPS)
12:02PM 47.2694 -136.1174 125° Southeast 512 589 36,000  Level FlightAware Transoceanic
12:03PM 47.1877 -135.9470 125° Southeast 512 589 36,000  Level FlightAware Transoceanic
12:04PM 47.1057 -135.7772 125° Southeast 512 589 36,000  Level FlightAware Transoceanic
12:05PM 47.0235 -135.6080 126° Southeast 512 589 36,000  Level FlightAware Transoceanic
12:06PM 46.9411 -135.4392 126° Southeast 512 589 36,000  Level FlightAware Transoceanic
12:07PM 46.8707 -135.2989 126° Southeast 511 588 36,000  Level FlightAware Transoceanic
12:08PM 46.7874 -135.1303 126° Southeast 511 588 36,000  Level FlightAware Transoceanic
12:09PM 46.7039 -134.9621 126° Southeast 511 588 36,000  Level FlightAware Transoceanic
12:10PM 46.6201 -134.7945 126° Southeast 511 588 36,000  Level FlightAware Transoceanic
12:11PM 46.5361 -134.6275 126° Southeast 511 588 36,000  Level FlightAware Transoceanic
12:12PM 46.4519 -134.4609 126° Southeast 511 588 36,000  Level FlightAware Transoceanic
12:13PM 46.3674 -134.2948 126° Southeast 511 588 36,000  Level FlightAware Transoceanic
12:14PM 46.2826 -134.1293 127° Southeast 511 588 36,000  Level FlightAware Transoceanic
12:15PM 46.1977 -133.9643 127° Southeast 511 588 36,000  Level FlightAware Transoceanic
12:16PM 46.1124 -133.7998 127° Southeast 511 588 36,000  Level FlightAware Transoceanic
12:17PM 46.0270 -133.6358 127° Southeast 511 588 36,000  Level FlightAware Transoceanic
12:18PM 45.9413 -133.4723 127° Southeast 511 588 36,000  Level FlightAware Transoceanic
12:19PM 45.8554 -133.3093 127° Southeast 511 588 36,000  Level FlightAware Transoceanic
12:20PM 45.7693 -133.1468 127° Southeast 511 588 36,000  Level FlightAware Transoceanic
12:21PM 45.6829 -132.9848 127° Southeast 511 588 36,000  Level FlightAware Transoceanic
12:22PM 45.5963 -132.8233 128° Southeast 511 588 36,000  Level FlightAware Transoceanic
12:23PM 45.5095 -132.6623 128° Southeast 511 588 36,000  Level FlightAware Transoceanic
12:24PM 45.4224 -132.5018 128° Southeast 511 588 36,000  Level FlightAware Transoceanic
12:25PM 45.3351 -132.3418 128° Southeast 511 588 36,000  Level FlightAware Transoceanic
12:26PM 45.2476 -132.1823 128° Southeast 511 588 36,000  Level FlightAware Transoceanic
12:27PM 45.1599 -132.0233 128° Southeast 511 588 36,000  Level FlightAware Transoceanic
12:28PM 45.0720 -131.8648 128° Southeast 511 588 36,000  Level FlightAware Transoceanic
12:28PM 45.0000 -131.7333 128° Southeast 516 594 36,000  Level Oakland Oceanic (ODAPS)
12:29PM 44.9838 -131.7067 128° Southeast 511 588 36,000  Level FlightAware Transoceanic
12:30PM 44.8954 -131.5492 128° Southeast 511 588 36,000  Level FlightAware Transoceanic
12:31PM 44.8068 -131.3921 129° Southeast 511 588 36,000 480 Level FlightAware Transoceanic
12:31PM 44.7000 -131.2000 129° Southeast 514 592 37,000  Climbing Oakland Oceanic (ODAPS)
12:32PM 44.7180 -131.2355 129° Southeast 511 588 36,000 -900 Descending FlightAware Transoceanic
12:33PM 44.6290 -131.0794 129° Southeast 511 588 36,000  Level FlightAware Transoceanic
12:34PM 44.4578 -130.7805 129° Southeast 516 594 36,000  Level FlightAware Transoceanic
12:35PM 44.3667 -130.6234 129° Southeast 516 594 36,000  Level FlightAware Transoceanic
12:36PM 44.2753 -130.4668 129° Southeast 516 594 36,000  Level FlightAware Transoceanic
12:37PM 44.1838 -130.3107 129° Southeast 516 594 36,000 480 Level FlightAware Transoceanic
12:38PM 44.1008 -130.1697 130° Southeast 514 592 37,000 480 Climbing FlightAware Transoceanic
12:39PM 44.0000 -130.0000 131° Southeast 514 592 37,000  Level FlightAware Transoceanic
12:39PM 44.0000 -130.0000 131° Southeast 513 590 37,000  Level Oakland Oceanic (ODAPS)
12:40PM 43.9065 -129.8505 131° Southeast 514 592 37,000  Level FlightAware Transoceanic
12:41PM 43.8128 -129.7015 131° Southeast 514 592 37,000  Level FlightAware Transoceanic
12:42PM 43.7189 -129.5530 131° Southeast 514 592 37,000  Level FlightAware Transoceanic
12:43PM 43.6248 -129.4049 131° Southeast 514 592 37,000  Level FlightAware Transoceanic
12:44PM 43.5306 -129.2573 131° Southeast 514 592 37,000  Level FlightAware Transoceanic
12:45PM 43.4361 -129.1101 132° Southeast 513 590 37,000  Level FlightAware Transoceanic
12:46PM 43.3415 -128.9634 132° Southeast 513 590 37,000  Level FlightAware Transoceanic
12:47PM 43.2466 -128.8172 132° Southeast 513 590 37,000  Level FlightAware Transoceanic
12:48PM 43.1516 -128.6714 132° Southeast 513 590 37,000  Level FlightAware Transoceanic
12:49PM 43.0564 -128.5260 132° Southeast 513 590 37,000  Level FlightAware Transoceanic
12:50PM 42.9610 -128.3812 132° Southeast 513 590 37,000  Level FlightAware Transoceanic
12:51PM 42.8655 -128.2367 132° Southeast 513 590 37,000  Level FlightAware Transoceanic
12:52PM 42.7697 -128.0927 132° Southeast 513 590 37,000  Level FlightAware Transoceanic
12:53PM 42.6738 -127.9492 132° Southeast 513 590 37,000  Level FlightAware Transoceanic
12:54PM 42.5777 -127.8061 132° Southeast 513 590 37,000  Level FlightAware Transoceanic
12:55PM 42.4814 -127.6635 133° Southeast 513 590 37,000  Level FlightAware Transoceanic
12:55PM 42.5333 -127.7500 132° Southeast 507 583 37,000  Level Oakland Oceanic (ODAPS)
12:56PM 42.3849 -127.5212 133° Southeast 513 590 37,000  Level FlightAware Transoceanic
12:57PM 42.2883 -127.3795 133° Southeast 513 590 37,000  Level FlightAware Transoceanic
12:58PM 42.1915 -127.2381 133° Southeast 513 590 37,000  Level FlightAware Transoceanic
12:58PM 42.2086 -127.2750 135° Southeast 512 589 37,000  Level Seattle Center
12:59PM 42.0945 -127.0972 133° Southeast 513 590 37,000  Level FlightAware Transoceanic
12:59PM 42.1114 -127.1356 133° Southeast 512 589 37,000  Level Seattle Center
01:00PM 41.9973 -126.9567 133° Southeast 513 590 37,000  Level FlightAware Transoceanic
01:00PM 42.0136 -126.9958 133° Southeast 513 590 37,000  Level Seattle Center
01:01PM 41.9909 -126.9489 133° Southeast 507 583 37,000 -120 Level FlightAware Transoceanic
01:01PM 41.9167 -126.8558 133° Southeast 514 592 36,900  Descending Seattle Center
01:02PM 41.9000 -126.8167 135° Southeast 507 583 37,000 60 Climbing FlightAware Transoceanic
01:02PM 41.7964 -126.6939 135° Southeast 513 590 37,000  Level Oakland Center
01:03PM 41.7964 -126.6797 135° Southeast 507 583 37,000 -120 Level FlightAware Transoceanic
01:03PM 41.6942 -126.5617 136° Southeast 512 589 36,900  Descending Oakland Center
01:04PM 41.6139 -126.4550 135° Southeast 512 589 37,000  Climbing Seattle Center
01:05PM 41.5133 -126.3194 135° Southeast 515 593 36,900  Descending Seattle Center
01:06PM 41.4119 -126.1872 136° Southeast 513 590 37,000  Climbing Seattle Center
01:07PM 41.3111 -126.0569 136° Southeast 508 585 36,900  Descending Seattle Center
01:08PM 41.2131 -125.9244 135° Southeast 505 581 37,000  Climbing Seattle Center
01:09PM 41.0911 -125.7706 136° Southeast 504 580 37,000 -60 Level Seattle Center
01:10PM 40.9906 -125.6419 136° Southeast 505 581 36,900  Descending Seattle Center
01:11PM 40.8900 -125.5133 136° Southeast 506 582 37,000  Climbing Seattle Center
01:12PM 40.7883 -125.3861 137° Southeast 504 580 37,000 -120 Level Seattle Center
01:12PM 40.7667 -125.3636 142° Southeast 504 580 36,900 -120 Descending Oakland Center
01:13PM 40.6883 -125.2600 135° Southeast 503 579 36,900  Level Seattle Center
01:19PM 40.0980 -124.5290 135° Southeast 497 572 37,000  Climbing FlightAware
01:20PM 40.0390 -124.4550 136° Southeast 498 573 37,000  Level FlightAware
01:20PM 39.9830 -124.3840 136° Southeast 498 573 37,000  Level FlightAware
01:21PM 39.9270 -124.3130 136° Southeast 498 573 37,000  Level FlightAware
01:22PM 39.8700 -124.2420 136° Southeast 498 573 37,000  Level FlightAware
01:22PM 39.8140 -124.1710 136° Southeast 498 573 37,000  Level FlightAware
01:23PM 39.6860 -124.0310 140° Southeast 495 570 37,000  Level FlightAware
01:24PM 39.6120 -123.9530 141° Southeast 489 563 37,000  Level FlightAware
01:25PM 39.4780 -123.8090 140° Southeast 489 563 37,000  Level FlightAware
01:26PM 39.3550 -123.6780 141° Southeast 487 560 37,000  Level FlightAware
01:27PM 39.2410 -123.5560 140° Southeast 487 560 37,000  Level FlightAware
01:28PM 39.1090 -123.4170 141° Southeast 488 562 37,000  Level FlightAware
01:30PM 38.9570 -123.2570 141° Southeast 496 571 37,000  Level FlightAware
01:31PM 38.8330 -123.1270 141° Southeast 495 570 37,000  Level FlightAware
01:32PM 38.7090 -122.9970 141° Southeast 494 568 37,000  Level FlightAware
01:33PM 38.6430 -122.9290 141° Southeast 494 568 37,000  Level FlightAware
01:35PM 38.4610 -122.7400 141° Southeast 492 566 37,000  Level FlightAware
01:36PM 38.3350 -122.6110 141° Southeast 485 558 37,000  Level FlightAware
01:37PM 38.1980 -122.4710 141° Southeast 491 565 37,000  Level FlightAware
01:38PM 38.1090 -122.3800 141° Southeast 490 564 37,000  Level FlightAware
01:39PM 38.0310 -122.3010 141° Southeast 490 564 37,000  Level FlightAware
01:39PM 37.9570 -122.2250 141° Southeast 489 563 37,000  Level FlightAware
01:40PM 37.8870 -122.1560 142° Southeast 489 563 37,000  Level FlightAware
01:41PM 37.8170 -122.0840 141° Southeast 488 562 37,000  Level FlightAware
01:41PM 37.7390 -122.0060 142° Southeast 488 562 37,000  Level FlightAware
01:42PM 37.6670 -121.9330 141° Southeast 488 562 37,000  Level FlightAware
01:43PM 37.5900 -121.8570 142° Southeast 488 562 37,000  Level FlightAware
01:43PM 37.5150 -121.7820 142° Southeast 491 565 37,000  Level FlightAware
01:44PM 37.4560 -121.7230 142° Southeast 492 566 37,000  Level FlightAware
01:45PM 37.3680 -121.6360 142° Southeast 492 566 37,000  Level FlightAware
01:45PM 37.2920 -121.5610 142° Southeast 493 567 37,000  Level FlightAware
01:46PM 37.2290 -121.4980 141° Southeast 493 567 37,000  Level FlightAware
01:47PM 37.1130 -121.3840 142° Southeast 494 568 37,000  Level FlightAware
01:48PM 37.0460 -121.3190 142° Southeast 494 568 37,000  Level FlightAware
01:48PM 36.9770 -121.2510 142° Southeast 497 572 37,000  Level FlightAware
01:50PM 36.8250 -121.1030 142° Southeast 495 570 37,000  Level FlightAware
01:51PM 36.7410 -121.0210 142° Southeast 495 570 37,000  Level FlightAware
01:51PM 36.6630 -120.9450 142° Southeast 497 572 37,000  Level FlightAware
01:52PM 36.5790 -120.8640 142° Southeast 498 573 37,000  Level FlightAware
01:53PM 36.5080 -120.7960 142° Southeast 500 575 37,000  Level FlightAware
01:53PM 36.4320 -120.7230 142° Southeast 500 575 37,000  Level FlightAware
01:54PM 36.3530 -120.6470 142° Southeast 500 575 37,000  Level FlightAware
01:55PM 36.2790 -120.5760 142° Southeast 501 577 37,000  Level FlightAware
01:56PM 36.1950 -120.4960 142° Southeast 499 574 37,000  Level FlightAware
01:56PM 36.1210 -120.4250 142° Southeast 499 574 37,000  Level FlightAware
01:57PM 36.0490 -120.3570 143° Southeast 499 574 37,000  Level FlightAware
01:58PM 35.9670 -120.2790 142° Southeast 500 575 37,000  Level FlightAware
01:58PM 35.8950 -120.2110 143° Southeast 501 577 37,000  Level FlightAware
01:59PM 35.8100 -120.1310 143° Southeast 500 575 37,000  Level FlightAware
02:00PM 35.7350 -120.0610 143° Southeast 502 578 37,000  Level FlightAware
02:00PM 35.6610 -119.9920 143° Southeast 503 579 37,000  Level FlightAware
02:01PM 35.5850 -119.9230 144° Southeast 501 577 37,000  Level FlightAware
02:02PM 35.5040 -119.8550 146° Southeast 495 570 37,000 -120 Level FlightAware
02:03PM 35.4170 -119.7810 145° Southeast 494 568 36,900 -1,020 Descending FlightAware
02:03PM 35.3420 -119.7160 145° Southeast 489 563 35,600 -2,040 Descending FlightAware
02:04PM 35.2680 -119.6520 145° Southeast 496 571 34,200 -2,760 Descending FlightAware
02:05PM 35.1850 -119.5810 145° Southeast 509 586 31,700 -3,000 Descending FlightAware
02:05PM 35.1090 -119.5160 145° Southeast 502 578 30,000 -2,220 Descending FlightAware
02:06PM 35.0240 -119.4430 145° Southeast 472 543 28,600 -2,220 Descending FlightAware
02:07PM 34.9520 -119.3820 145° Southeast 459 528 26,900 -2,280 Descending FlightAware
02:07PM 34.8760 -119.3180 145° Southeast 443 510 25,400 -1,800 Descending FlightAware
02:08PM 34.8110 -119.2630 145° Southeast 430 495 24,400 -1,920 Descending FlightAware
02:09PM 34.7390 -119.2020 145° Southeast 422 486 22,700 -2,160 Descending FlightAware
02:10PM 34.6780 -119.1500 145° Southeast 418 481 21,400 -1,980 Descending FlightAware
02:10PM 34.6120 -119.0950 146° Southeast 411 473 20,100 -1,920 Descending FlightAware
02:11PM 34.5490 -119.0420 145° Southeast 397 457 18,900 -1,800 Descending FlightAware
02:12PM 34.4260 -118.9390 145° Southeast 392 451 16,400 -1,800 Descending FlightAware
02:13PM 34.3720 -118.8950 146° Southeast 378 435 15,300 -1,800 Descending FlightAware
02:14PM 34.2920 -118.8570 159° South 372 428 13,900 -1,740 Descending FlightAware
02:15PM 34.2020 -118.8240 163° South 367 422 12,300 -1,440 Descending FlightAware
02:15PM 34.1410 -118.8020 163° South 340 391 11,700 -960 Descending FlightAware
02:16PM 34.0720 -118.7760 163° South 315 362 11,000 -900 Descending FlightAware
02:16PM 34.0540 -118.7620 147° Southeast 310 357 10,800 -840 Descending FlightAware
02:17PM 34.0320 -118.6970 112° Southeast 290 334 10,200 -780 Descending FlightAware
02:17PM 34.0290 -118.6600 96° East 281 323 9,900 -780 Descending FlightAware
02:18PM 34.0220 -118.5820 96° East 287 330 9,300 -900 Descending FlightAware
02:18PM 34.0200 -118.5580 96° East 287 330 9,000 -1,200 Descending FlightAware
02:19PM 34.0170 -118.5260 96° East 285 328 8,600 -1,020 Descending FlightAware
02:19PM 34.0130 -118.4820 96° East 281 323 8,100 -840 Descending FlightAware
02:20PM 34.0100 -118.4500 96° East 278 320 7,800 -780 Descending FlightAware
02:20PM 34.0110 -118.4020 89° East 259 298 7,400 -1,200 Descending FlightAware
02:21PM 34.0170 -118.3620 80° East 249 287 6,600 -1,980 Descending FlightAware
02:21PM 34.0220 -118.3240 81° East 249 287 5,600 -1,860 Descending FlightAware
02:22PM 34.0270 -118.2890 80° East 236 272 4,900 -1,860 Descending FlightAware
02:22PM 34.0340 -118.2410 80° East 200 230 3,900 -1,860 Descending FlightAware
02:23PM 34.0370 -118.2080 84° East 197 227 3,200 -1,200 Descending FlightAware
02:23PM 34.0330 -118.1990 118° Southeast 194 223 3,100 -600 Descending FlightAware
02:23PM 34.0210 -118.1910 151° Southeast 188 216 2,900 -540 Descending FlightAware
02:23PM 34.0040 -118.1880 172° South 190 219 2,800 -900 Descending FlightAware
02:24PM 33.9880 -118.1960 203° Southwest 192 221 2,400 -960 Descending FlightAware
02:24PM 33.9750 -118.2160 232° Southwest 187 215 2,100 -420 Descending FlightAware
02:24PM 33.9730 -118.2210 244° Southwest 188 216 2,100  Level FlightAware
02:25PM 33.9660 -118.2650 259° West 187 215 2,100 -180 Level FlightAware
02:25PM 33.9640 -118.2830 262° West 188 216 2,000 -780 Descending FlightAware
02:26PM 33.9620 -118.3060 264° West 166 191 1,600 -780 Descending FlightAware
02:26PM 33.9600 -118.3250 263° West 148 170 1,300 -600 Descending FlightAware
02:27PM 33.9580 -118.3460 263° West 147 169 1,000 -720 Descending FlightAware
02:27PM 33.9570 -118.3490 248° West 147 169 900 -900 Descending FlightAware
02:27PM 33.9540 -118.3820 264° West 147 169 400 -840 Descending FlightAware
02:28PM 33.9520 -118.4010 263° West 145 167 100 -360 Descending FlightAware
02:28PM 33.9500 -118.4200 263° West 145 167 100  Level FlightAware